createdAt,value
2024-03-08T00:00:44.076Z,45.55
2024-03-08T00:03:11.111Z,44.70
2024-03-08T00:05:38.160Z,46.10
2024-03-08T00:08:06.543Z,44.08
2024-03-08T00:10:33.517Z,45.20
2024-03-08T00:13:00.695Z,49.90
2024-03-08T00:15:27.671Z,46.00
2024-03-08T00:17:54.847Z,45.75
2024-03-08T00:20:21.874Z,52.22
2024-03-08T00:22:48.972Z,50.53
2024-03-08T00:25:16.292Z,51.42
2024-03-08T00:27:43.439Z,50.87
2024-03-08T00:30:11.160Z,48.03
2024-03-08T00:32:38.846Z,49.85
2024-03-08T00:35:06.227Z,47.88
2024-03-08T00:37:33.689Z,54.55
2024-03-08T00:40:00.744Z,47.63
2024-03-08T00:42:27.867Z,53.25
2024-03-08T00:44:55.065Z,54.25
2024-03-08T00:47:22.326Z,49.78
2024-03-08T00:49:49.251Z,52.97
2024-03-08T00:52:18.168Z,51.07
2024-03-08T00:54:45.225Z,53.55
2024-03-08T00:57:12.904Z,53.13
2024-03-08T00:59:40.279Z,53.90
2024-03-08T01:02:07.345Z,52.08
2024-03-08T01:04:34.642Z,53.77
2024-03-08T01:07:02.161Z,51.15
2024-03-08T01:09:29.157Z,50.78
2024-03-08T01:11:57.070Z,49.85
2024-03-08T01:14:25.605Z,54.30
2024-03-08T01:16:52.866Z,57.00
2024-03-08T01:19:19.827Z,54.05
2024-03-08T01:21:46.797Z,54.38
2024-03-08T01:24:13.899Z,53.00
2024-03-08T01:26:40.941Z,55.47
2024-03-08T01:29:07.971Z,52.70
2024-03-08T01:31:35.275Z,48.08
2024-03-08T01:34:02.351Z,53.20
2024-03-08T01:36:29.283Z,50.58
2024-03-08T01:38:56.559Z,48.75
2024-03-08T01:41:23.568Z,46.63
2024-03-08T01:43:50.519Z,51.45
2024-03-08T01:46:20.942Z,51.15
2024-03-08T01:48:48.224Z,51.67
2024-03-08T01:51:15.435Z,51.22
2024-03-08T01:53:45.127Z,55.17
2024-03-08T01:56:12.296Z,53.92
2024-03-08T01:58:39.780Z,56.42
2024-03-08T02:01:06.967Z,55.67
2024-03-08T02:03:34.103Z,54.13
2024-03-08T02:06:01.103Z,57.37
2024-03-08T02:08:28.401Z,55.60
2024-03-08T02:10:55.463Z,56.53
2024-03-08T02:13:23.239Z,60.03
2024-03-08T02:15:57.516Z,56.20
2024-03-08T02:18:25.734Z,56.30
2024-03-08T02:21:00.738Z,53.13
2024-03-08T02:23:28.631Z,55.33
2024-03-08T02:25:57.467Z,60.90
2024-03-08T02:28:25.682Z,61.30
2024-03-08T02:30:53.535Z,57.77
2024-03-08T02:33:20.513Z,55.80
2024-03-08T02:35:48.738Z,58.03
2024-03-08T02:38:18.646Z,57.65
2024-03-08T02:40:47.434Z,57.42
2024-03-08T02:43:16.877Z,57.77
2024-03-08T02:45:43.906Z,53.55
2024-03-08T02:48:11.101Z,52.75
2024-03-08T02:50:38.922Z,56.08
2024-03-08T02:53:06.491Z,61.40
2024-03-08T02:55:33.829Z,56.63
2024-03-08T02:58:01.317Z,56.92
2024-03-08T03:00:28.707Z,62.83
2024-03-08T03:02:55.950Z,59.53
2024-03-08T03:05:22.897Z,60.55
2024-03-08T03:07:50.743Z,58.10
2024-03-08T03:10:21.188Z,58.15
2024-03-08T03:12:48.692Z,59.92
2024-03-08T03:15:16.269Z,57.83
2024-03-08T03:17:52.663Z,56.60
2024-03-08T03:20:21.178Z,57.93
2024-03-08T03:22:48.228Z,58.65
2024-03-08T03:25:15.185Z,56.97
2024-03-08T03:27:42.175Z,59.00
2024-03-08T03:30:09.686Z,64.45
2024-03-08T03:32:36.893Z,59.57
2024-03-08T03:35:04.267Z,58.55
2024-03-08T03:37:31.210Z,59.17
2024-03-08T03:39:58.155Z,52.40
2024-03-08T03:42:25.300Z,57.45
2024-03-08T03:44:52.400Z,57.73
2024-03-08T03:47:19.349Z,60.85
2024-03-08T03:49:46.400Z,61.95
2024-03-08T03:52:13.347Z,61.03
2024-03-08T03:54:40.381Z,62.00
2024-03-08T03:57:07.381Z,59.03
2024-03-08T03:59:34.555Z,62.25
2024-03-08T04:02:01.489Z,61.45
2024-03-08T04:04:28.463Z,57.70
2024-03-08T04:06:55.523Z,61.55
2024-03-08T04:09:22.584Z,70.20
2024-03-08T04:11:50.540Z,71.22
2024-03-08T04:14:17.820Z,74.05
2024-03-08T04:16:44.816Z,69.57
2024-03-08T04:19:11.781Z,65.97
2024-03-08T04:21:38.767Z,67.20
2024-03-08T04:24:06.025Z,65.07
2024-03-08T04:26:33.277Z,63.92
2024-03-08T04:29:00.255Z,60.88
2024-03-08T04:31:27.215Z,60.70
2024-03-08T04:33:54.326Z,63.30
2024-03-08T04:36:22.167Z,63.72
2024-03-08T04:38:49.165Z,67.45
2024-03-08T04:41:16.268Z,62.00
2024-03-08T04:43:44.050Z,59.90
2024-03-08T04:46:11.042Z,64.83
2024-03-08T04:48:39.097Z,58.00
2024-03-08T04:51:06.369Z,62.15
2024-03-08T04:53:33.324Z,61.35
2024-03-08T04:56:00.551Z,64.30
2024-03-08T04:58:27.600Z,58.53
2024-03-08T05:00:54.926Z,59.63
2024-03-08T05:03:22.237Z,54.53
2024-03-08T05:05:49.469Z,58.70
2024-03-08T05:08:16.509Z,57.33
2024-03-08T05:10:43.528Z,63.27
2024-03-08T05:13:10.569Z,56.85
2024-03-08T05:15:37.648Z,57.97
2024-03-08T05:18:04.785Z,59.85
2024-03-08T05:20:31.939Z,59.70
2024-03-08T05:22:58.972Z,63.73
2024-03-08T05:25:25.883Z,58.10
2024-03-08T05:27:52.835Z,61.58
2024-03-08T05:30:20.017Z,61.90
2024-03-08T05:32:47.146Z,60.45
2024-03-08T05:35:14.347Z,57.20
2024-03-08T05:37:41.224Z,63.90
2024-03-08T05:40:10.301Z,60.47
2024-03-08T05:42:39.324Z,61.75
2024-03-08T05:45:06.626Z,60.40
2024-03-08T05:47:34.171Z,62.27
2024-03-08T05:50:01.304Z,59.88
2024-03-08T05:52:28.430Z,57.88
2024-03-08T05:54:55.346Z,62.75
2024-03-08T05:57:22.351Z,60.03
2024-03-08T05:59:49.296Z,63.67
2024-03-08T06:02:16.361Z,60.75
2024-03-08T06:04:43.325Z,62.83
2024-03-08T06:07:10.341Z,63.03
2024-03-08T06:09:37.455Z,65.63
2024-03-08T06:12:04.818Z,58.87
2024-03-08T06:14:31.743Z,59.85
2024-03-08T06:16:59.403Z,59.25
2024-03-08T06:19:26.562Z,62.70
2024-03-08T06:21:54.150Z,58.97
2024-03-08T06:24:21.170Z,65.27
2024-03-08T06:26:48.138Z,62.05
2024-03-08T06:29:15.176Z,62.80
2024-03-08T06:31:42.281Z,60.97
2024-03-08T06:34:09.591Z,64.57
2024-03-08T06:36:37.082Z,60.30
2024-03-08T06:39:04.098Z,58.05
2024-03-08T06:41:31.161Z,60.25
2024-03-08T06:43:58.191Z,62.63
2024-03-08T06:46:25.113Z,65.18
2024-03-08T06:48:52.331Z,59.87
2024-03-08T06:51:20.255Z,61.10
2024-03-08T06:53:47.721Z,62.47
2024-03-08T06:56:14.733Z,56.75
2024-03-08T06:58:41.924Z,54.28
2024-03-08T07:01:09.474Z,56.70
2024-03-08T07:03:37.004Z,57.67
2024-03-08T07:06:04.923Z,54.80
2024-03-08T07:08:32.385Z,61.47
2024-03-08T07:11:00.476Z,57.05
2024-03-08T07:13:28.246Z,58.90
2024-03-08T07:15:55.108Z,61.10
2024-03-08T07:18:22.261Z,56.25
2024-03-08T07:20:49.357Z,60.08
2024-03-08T07:23:16.394Z,63.72
2024-03-08T07:25:43.432Z,62.17
2024-03-08T07:28:12.787Z,58.90
2024-03-08T07:30:40.904Z,60.30
2024-03-08T07:33:08.443Z,58.70
2024-03-08T07:35:35.747Z,61.10
2024-03-08T07:38:02.715Z,61.57
2024-03-08T07:40:29.734Z,60.65
2024-03-08T07:42:56.692Z,60.65
2024-03-08T07:45:23.800Z,63.83
2024-03-08T07:47:50.790Z,62.00
2024-03-08T07:50:18.880Z,60.53
2024-03-08T07:52:45.842Z,64.22
2024-03-08T07:55:14.067Z,61.00
2024-03-08T07:57:41.300Z,65.72
2024-03-08T08:00:08.638Z,63.33
2024-03-08T08:02:39.141Z,67.40
2024-03-08T08:05:07.916Z,67.18
2024-03-08T08:07:34.944Z,67.53
2024-03-08T08:10:01.915Z,72.60
2024-03-08T08:12:28.925Z,75.00
2024-03-08T08:14:56.039Z,70.37
2024-03-08T08:17:22.885Z,64.65
2024-03-08T08:19:49.866Z,69.68
2024-03-08T08:22:16.878Z,69.30
2024-03-08T08:24:43.791Z,65.80
2024-03-08T08:27:10.709Z,63.90
2024-03-08T08:29:37.784Z,64.55
2024-03-08T08:32:05.173Z,67.25
2024-03-08T08:34:32.132Z,64.55
2024-03-08T08:36:59.388Z,64.15
2024-03-08T08:39:26.265Z,69.30
2024-03-08T08:41:54.790Z,69.65
2024-03-08T08:44:23.183Z,65.75
2024-03-08T08:46:51.626Z,66.25
2024-03-08T08:49:22.055Z,60.67
2024-03-08T08:51:54.003Z,70.03
2024-03-08T08:54:22.092Z,66.88
2024-03-08T08:56:49.133Z,64.28
2024-03-08T08:59:17.265Z,68.93
2024-03-08T09:01:45.290Z,72.75
2024-03-08T09:04:12.311Z,66.90
2024-03-08T09:06:39.597Z,74.93
2024-03-08T09:09:07.268Z,76.20
2024-03-08T09:11:34.384Z,76.53
2024-03-08T09:14:01.662Z,77.05
2024-03-08T09:16:28.716Z,76.17
2024-03-08T09:18:55.586Z,75.10
2024-03-08T09:21:24.064Z,74.20
2024-03-08T09:23:51.251Z,71.40
2024-03-08T09:26:25.487Z,76.03
2024-03-08T09:28:55.864Z,74.97
2024-03-08T09:31:23.520Z,85.47
2024-03-08T09:33:50.467Z,81.38
2024-03-08T09:36:17.627Z,80.30
2024-03-08T09:38:44.874Z,76.53
2024-03-08T09:41:11.942Z,78.47
2024-03-08T09:43:39.290Z,77.22
2024-03-08T09:46:08.623Z,79.90
2024-03-08T09:48:36.056Z,79.38
2024-03-08T09:51:04.959Z,84.45
2024-03-08T09:53:31.885Z,80.07
2024-03-08T09:55:59.121Z,81.72
2024-03-08T09:58:26.175Z,82.60
2024-03-08T10:00:53.167Z,85.90
2024-03-08T10:03:23.362Z,85.05
2024-03-08T10:05:50.371Z,79.37
2024-03-08T10:08:17.454Z,73.55
2024-03-08T10:10:44.814Z,67.32
2024-03-08T10:13:11.822Z,79.50
2024-03-08T10:15:40.914Z,80.85
2024-03-08T10:18:08.684Z,69.43
2024-03-08T10:20:35.746Z,71.97
2024-03-08T10:23:10.453Z,73.03
2024-03-08T10:25:39.086Z,63.55
2024-03-08T10:28:06.757Z,63.53
2024-03-08T10:30:33.940Z,60.13
2024-03-08T10:33:01.201Z,49.47
2024-03-08T10:35:28.442Z,56.30
2024-03-08T10:37:58.269Z,48.88
2024-03-08T10:40:26.665Z,44.83
2024-03-08T10:42:55.822Z,47.87
2024-03-08T10:45:36.329Z,44.72
2024-03-08T10:48:21.860Z,41.03
2024-03-08T10:50:49.947Z,45.20
2024-03-08T10:53:18.941Z,46.00
2024-03-08T10:55:47.743Z,43.80
2024-03-08T10:58:16.325Z,41.72
2024-03-08T11:00:43.345Z,38.38
2024-03-08T11:03:42.006Z,38.33
2024-03-08T11:06:09.443Z,35.72
2024-03-08T11:08:39.446Z,35.43
2024-03-08T11:11:34.560Z,30.98
2024-03-08T11:14:03.949Z,30.15
2024-03-08T11:16:31.006Z,30.83
2024-03-08T11:19:02.680Z,29.10
2024-03-08T11:21:31.110Z,26.50
2024-03-08T11:24:02.223Z,23.42
2024-03-08T11:26:31.631Z,22.90
2024-03-08T11:29:29.021Z,22.70
2024-03-08T11:32:18.476Z,19.65
2024-03-08T11:34:48.598Z,18.27
2024-03-08T11:37:17.733Z,21.23
2024-03-08T11:39:55.560Z,20.42
2024-03-08T11:42:22.530Z,22.73
2024-03-08T11:44:51.845Z,18.60
2024-03-08T11:47:19.361Z,17.67
2024-03-08T11:49:46.648Z,18.80
2024-03-08T11:52:15.354Z,17.58
2024-03-08T11:54:43.661Z,18.73
2024-03-08T11:57:11.081Z,19.75
2024-03-08T11:59:39.016Z,16.70
2024-03-08T12:02:07.116Z,20.58
2024-03-08T12:04:34.659Z,19.42
2024-03-08T12:07:01.740Z,19.08
2024-03-08T12:09:29.227Z,14.45
2024-03-08T12:11:56.504Z,20.37
2024-03-08T12:14:23.467Z,19.48
2024-03-08T12:16:52.455Z,29.23
2024-03-08T12:19:19.844Z,20.60
2024-03-08T12:21:46.972Z,19.55
2024-03-08T12:24:17.028Z,21.93
2024-03-08T12:26:44.073Z,20.33
2024-03-08T12:29:26.347Z,21.67
2024-03-08T12:31:57.451Z,21.55
2024-03-08T12:34:24.419Z,22.88
2024-03-08T12:36:53.525Z,20.40
2024-03-08T12:39:21.246Z,18.25
2024-03-08T12:41:48.200Z,23.20
2024-03-08T12:44:15.171Z,19.90
2024-03-08T12:46:42.210Z,19.60
2024-03-08T12:49:09.594Z,20.40
2024-03-08T12:51:37.691Z,20.88
2024-03-08T12:54:07.880Z,22.17
2024-03-08T12:56:37.105Z,19.02
2024-03-08T12:59:08.365Z,19.42
2024-03-08T13:01:36.020Z,18.90
2024-03-08T13:04:02.990Z,18.52
2024-03-08T13:06:30.695Z,16.70
2024-03-08T13:08:58.559Z,19.45
2024-03-08T13:11:26.750Z,18.38
2024-03-08T13:16:44.681Z,17.65
2024-03-08T13:19:11.577Z,18.80
2024-03-08T13:21:38.581Z,20.55
2024-03-08T13:24:05.823Z,20.50
2024-03-08T13:26:33.575Z,19.37
2024-03-08T13:29:00.814Z,20.38
2024-03-08T13:31:27.915Z,18.60
2024-03-08T13:33:58.212Z,17.75
2024-03-08T13:36:26.477Z,17.25
2024-03-08T13:38:53.551Z,16.10
2024-03-08T13:41:20.552Z,18.60
2024-03-08T13:43:48.481Z,18.20
2024-03-08T13:46:16.193Z,16.83
2024-03-08T13:48:43.268Z,15.35
2024-03-08T13:51:10.510Z,14.77
2024-03-08T13:53:37.514Z,15.45
2024-03-08T13:56:05.201Z,14.93
2024-03-08T13:58:32.417Z,15.77
2024-03-08T14:00:59.421Z,15.27
2024-03-08T14:03:26.422Z,15.10
2024-03-08T14:05:53.473Z,14.30
2024-03-08T14:08:20.425Z,16.52
2024-03-08T14:10:47.402Z,17.25
2024-03-08T14:13:14.372Z,18.45
2024-03-08T14:15:41.393Z,19.67
2024-03-08T14:18:08.522Z,15.88
2024-03-08T14:20:35.871Z,19.10
2024-03-08T14:23:03.195Z,16.80
2024-03-08T14:25:30.119Z,18.67
2024-03-08T14:27:57.074Z,19.43
2024-03-08T14:30:23.961Z,19.23
2024-03-08T14:32:50.878Z,17.67
2024-03-08T14:35:17.905Z,19.00
2024-03-08T14:37:44.889Z,18.33
2024-03-08T14:40:12.007Z,18.03
2024-03-08T14:42:42.538Z,19.45
2024-03-08T14:45:09.751Z,17.45
2024-03-08T14:47:36.673Z,18.27
2024-03-08T14:50:03.838Z,20.50
2024-03-08T14:52:31.216Z,18.53
2024-03-08T14:54:58.360Z,17.13
2024-03-08T14:57:25.350Z,19.38
2024-03-08T14:59:52.449Z,17.90
2024-03-08T15:02:19.424Z,16.55
2024-03-08T15:04:48.517Z,16.47
2024-03-08T15:07:15.649Z,18.30
2024-03-08T15:09:42.472Z,17.15
2024-03-08T15:12:10.517Z,17.60
2024-03-08T15:14:41.711Z,17.85
2024-03-08T15:17:08.727Z,16.03
2024-03-08T15:19:36.017Z,17.17
2024-03-08T15:22:03.016Z,17.60
2024-03-08T15:24:30.001Z,16.67
2024-03-08T15:26:57.260Z,16.02
2024-03-08T15:29:24.311Z,16.30
2024-03-08T15:31:51.192Z,18.10
2024-03-08T15:34:18.306Z,17.40
2024-03-08T15:36:45.337Z,17.35
2024-03-08T15:39:12.363Z,16.33
2024-03-08T15:41:39.577Z,17.13
2024-03-08T15:44:06.550Z,16.45
2024-03-08T15:46:33.548Z,16.88
2024-03-08T15:49:00.709Z,17.92
2024-03-08T15:51:27.698Z,17.55
2024-03-08T15:53:54.839Z,19.27
2024-03-08T15:56:21.987Z,17.52
2024-03-08T15:58:48.874Z,18.05
2024-03-08T16:01:16.253Z,20.13
2024-03-08T16:03:44.042Z,18.77
2024-03-08T16:06:11.068Z,18.13
2024-03-08T16:08:38.242Z,21.85
2024-03-08T16:11:05.563Z,17.52
2024-03-08T16:13:35.225Z,17.90
2024-03-08T16:16:02.251Z,18.88
2024-03-08T16:18:29.299Z,16.47
2024-03-08T16:20:57.421Z,15.90
2024-03-08T16:23:25.530Z,16.92
2024-03-08T16:25:52.576Z,19.05
2024-03-08T16:28:19.742Z,17.23
2024-03-08T16:30:46.768Z,18.30
2024-03-08T16:33:13.823Z,20.00
2024-03-08T16:35:40.726Z,17.35
2024-03-08T16:38:07.697Z,18.50
2024-03-08T16:40:34.838Z,16.13
2024-03-08T16:43:01.777Z,17.20
2024-03-08T16:45:28.706Z,17.27
2024-03-08T16:47:57.581Z,16.65
2024-03-08T16:50:24.843Z,16.92
2024-03-08T16:52:55.026Z,16.58
2024-03-08T16:55:23.463Z,16.17
2024-03-08T16:57:54.770Z,16.10
2024-03-08T17:00:24.237Z,17.08
2024-03-08T17:02:51.292Z,14.90
2024-03-08T17:05:18.375Z,15.10
2024-03-08T17:07:50.522Z,16.47
2024-03-08T17:10:17.833Z,13.75
2024-03-08T17:12:45.192Z,14.50
2024-03-08T17:15:12.590Z,17.17
2024-03-08T17:17:40.340Z,13.45
2024-03-08T17:20:08.079Z,14.80
2024-03-08T17:22:35.037Z,13.52
2024-03-08T17:25:02.044Z,13.75
2024-03-08T17:27:29.937Z,12.88
2024-03-08T17:29:56.832Z,15.18
2024-03-08T17:32:23.800Z,14.40
2024-03-08T17:34:50.916Z,12.75
2024-03-08T17:37:17.953Z,12.65
2024-03-08T17:39:44.866Z,14.10
2024-03-08T17:42:12.829Z,14.18
2024-03-08T17:44:39.729Z,13.20
2024-03-08T17:47:07.002Z,13.10
2024-03-08T17:49:34.587Z,13.75
2024-03-08T17:52:02.570Z,15.50
2024-03-08T17:54:29.895Z,13.07
2024-03-08T17:56:56.940Z,12.17
2024-03-08T17:59:23.787Z,15.52
2024-03-08T18:01:51.727Z,13.63
2024-03-08T18:04:18.708Z,14.18
2024-03-08T18:06:45.708Z,14.55
2024-03-08T18:09:12.688Z,15.60
2024-03-08T18:11:40.194Z,13.57
2024-03-08T18:14:07.704Z,13.95
2024-03-08T18:16:35.006Z,14.55
2024-03-08T18:19:03.066Z,14.45
2024-03-08T18:21:29.997Z,15.20
2024-03-08T18:23:57.099Z,14.00
2024-03-08T18:26:24.009Z,14.77
2024-03-08T18:28:53.597Z,15.80
2024-03-08T18:31:20.745Z,15.20
2024-03-08T18:33:47.680Z,14.73
2024-03-08T18:36:15.115Z,15.82
2024-03-08T18:38:42.498Z,14.90
2024-03-08T18:41:11.223Z,15.90
2024-03-08T18:43:38.145Z,17.77
2024-03-08T18:46:05.608Z,17.23
2024-03-08T18:48:32.577Z,14.88
2024-03-08T18:50:59.515Z,17.27
2024-03-08T18:53:28.792Z,16.40
2024-03-08T18:55:56.058Z,17.58
2024-03-08T18:58:30.528Z,18.77
2024-03-08T19:01:04.112Z,16.25
2024-03-08T19:03:31.006Z,18.73
2024-03-08T19:05:58.295Z,16.17
2024-03-08T19:08:25.408Z,16.08
2024-03-08T19:10:52.638Z,18.43
2024-03-08T19:13:19.729Z,16.92
2024-03-08T19:15:46.762Z,15.73
2024-03-08T19:18:14.601Z,16.80
2024-03-08T19:21:06.753Z,14.82
2024-03-08T19:23:34.136Z,16.30
2024-03-08T19:26:01.674Z,16.65
2024-03-08T19:28:28.904Z,16.63
2024-03-08T19:30:56.552Z,16.23
2024-03-08T19:33:23.726Z,16.35
2024-03-08T19:35:51.602Z,18.97
2024-03-08T19:38:19.666Z,17.35
2024-03-08T19:40:47.698Z,17.75
2024-03-08T19:43:15.405Z,16.15
2024-03-08T19:45:43.002Z,16.23
2024-03-08T19:48:11.039Z,16.47
2024-03-08T19:50:38.378Z,17.85
2024-03-08T19:53:07.623Z,20.10
2024-03-08T19:55:36.254Z,17.17
2024-03-08T19:58:05.646Z,18.10
2024-03-08T20:00:34.879Z,16.93
2024-03-08T20:03:04.983Z,19.00
2024-03-08T20:05:34.017Z,16.58
2024-03-08T20:08:04.858Z,18.80
2024-03-08T20:10:33.722Z,18.50
2024-03-08T20:13:01.245Z,20.93
2024-03-08T20:15:29.184Z,21.35
2024-03-08T20:17:56.830Z,19.05
2024-03-08T20:20:24.973Z,21.98
2024-03-08T20:22:53.694Z,18.20
2024-03-08T20:25:29.468Z,21.33
2024-03-08T20:28:05.478Z,21.88
2024-03-08T20:30:35.757Z,21.67
2024-03-08T20:33:04.242Z,23.05
2024-03-08T20:35:34.984Z,22.65
2024-03-08T20:38:05.548Z,21.40
2024-03-08T20:40:35.399Z,21.63
2024-03-08T20:43:02.964Z,22.33
2024-03-08T20:45:30.573Z,24.00
2024-03-08T20:47:59.291Z,21.50
2024-03-08T20:50:30.548Z,22.07
2024-03-08T20:52:59.180Z,19.75
2024-03-08T20:55:30.367Z,22.38
2024-03-08T20:58:02.022Z,21.55
2024-03-08T21:00:29.455Z,20.50
2024-03-08T21:02:56.908Z,23.07
2024-03-08T21:05:24.369Z,22.25
2024-03-08T21:07:51.542Z,20.77
2024-03-08T21:10:18.764Z,20.02
2024-03-08T21:12:47.341Z,24.17
2024-03-08T21:15:15.694Z,23.80
2024-03-08T21:17:42.993Z,22.48
2024-03-08T21:20:10.623Z,20.15
2024-03-08T21:22:37.618Z,23.60
2024-03-08T21:25:05.449Z,22.35
2024-03-08T21:27:32.415Z,21.57
2024-03-08T21:29:59.410Z,23.30
2024-03-08T21:32:26.589Z,20.13
2024-03-08T21:34:53.563Z,20.85
2024-03-08T21:37:20.504Z,21.70
2024-03-08T21:39:47.623Z,23.77
2024-03-08T21:42:14.590Z,22.27
2024-03-08T21:44:41.531Z,21.45
2024-03-08T21:47:08.760Z,21.38
2024-03-08T21:49:35.707Z,18.60
2024-03-08T21:52:02.738Z,22.27
2024-03-08T21:54:29.750Z,20.48
2024-03-08T21:56:57.164Z,22.83
2024-03-08T21:59:24.157Z,22.17
2024-03-08T22:01:52.302Z,24.02
2024-03-08T22:04:19.878Z,23.60
2024-03-08T22:06:47.143Z,21.08
2024-03-08T22:09:15.358Z,21.70
2024-03-08T22:11:42.559Z,23.15
2024-03-08T22:14:09.896Z,20.45
2024-03-08T22:16:37.074Z,21.83
2024-03-08T22:19:04.060Z,22.92
2024-03-08T22:21:30.934Z,22.52
2024-03-08T22:23:58.051Z,25.35
2024-03-08T22:26:25.009Z,22.38
2024-03-08T22:28:52.029Z,24.77
2024-03-08T22:31:19.244Z,21.20
2024-03-08T22:33:46.249Z,21.65
2024-03-08T22:36:13.452Z,20.98
2024-03-08T22:38:41.014Z,23.02
2024-03-08T22:41:08.043Z,22.47
2024-03-08T22:43:35.161Z,21.58
2024-03-08T22:46:02.050Z,20.92
2024-03-08T22:48:29.107Z,23.60
2024-03-08T22:50:56.057Z,24.52
2024-03-08T22:53:22.979Z,22.97
2024-03-08T22:55:49.991Z,22.67
2024-03-08T22:58:16.984Z,24.25
2024-03-08T23:00:44.192Z,22.10
2024-03-08T23:03:11.238Z,23.20
2024-03-08T23:05:38.259Z,21.53
2024-03-08T23:08:05.853Z,22.40
2024-03-08T23:10:33.362Z,22.75
2024-03-08T23:13:00.443Z,21.83
2024-03-08T23:15:27.626Z,23.13
2024-03-08T23:17:55.299Z,22.10
2024-03-08T23:20:23.469Z,22.75
2024-03-08T23:22:50.870Z,24.70
2024-03-08T23:25:22.213Z,21.88
2024-03-08T23:27:58.189Z,19.60
2024-03-08T23:30:26.283Z,23.77
2024-03-08T23:32:53.989Z,21.42
2024-03-08T23:35:21.292Z,22.05
2024-03-08T23:37:50.831Z,22.52
2024-03-08T23:40:20.486Z,22.48
2024-03-08T23:42:49.482Z,21.23
2024-03-08T23:45:17.223Z,18.80
2024-03-08T23:47:45.982Z,22.38
2024-03-08T23:50:15.133Z,21.08
2024-03-08T23:52:47.845Z,21.98
2024-03-08T23:55:16.311Z,22.07
2024-03-08T23:57:49.010Z,20.67
